Flight Track Log - Related Links

Times and Time Zones

All times are in EDT time to prevent confusion due to time zone crossing. See the CSZ9901 flight status page for this flight to view local times or setup timezone preferences in your user account.

Time Position Orientation Groundspeed Altitude Reporting Facility
EDT Latitude Longitude Course Direction KTS MPH feet Rate Location/Type
Wed 07:14:00 PM 22.1447 113.2913 224° Southwest  Level Estimated
Wed 07:15:00 PM 22.0621 113.2048 224° Southwest  Level Estimated
Wed 07:16:00 PM 21.9794 113.1184 224° Southwest  Level Estimated
Wed 07:17:00 PM 21.8967 113.0321 224° Southwest  Level Estimated
Wed 07:18:00 PM 21.8139 112.9459 224° Southwest  Level Estimated
Wed 07:19:00 PM 21.7311 112.8598 224° Southwest  Level Estimated
Wed 07:20:00 PM 21.6483 112.7738 224° Southwest  Level Estimated
Wed 07:21:00 PM 21.5654 112.6879 224° Southwest  Level Estimated
Wed 07:22:00 PM 21.4824 112.6021 224° Southwest  Level Estimated
Wed 07:23:00 PM 21.3994 112.5164 224° Southwest  Level Estimated
Wed 07:24:00 PM 21.3164 112.4308 224° Southwest  Level Estimated
Wed 07:25:00 PM 21.2333 112.3453 224° Southwest  Level Estimated
Wed 07:26:00 PM 21.1502 112.2599 224° Southwest  Level Estimated
Wed 07:27:00 PM 21.0671 112.1746 224° Southwest  Level Estimated
Wed 07:28:00 PM 20.9839 112.0893 224° Southwest  Level Estimated
Wed 07:29:00 PM 20.9006 112.0042 224° Southwest  Level Estimated
Wed 07:30:00 PM 20.8174 111.9192 224° Southwest  Level Estimated
Wed 07:31:00 PM 20.7340 111.8343 224° Southwest  Level Estimated
Wed 07:32:00 PM 20.6507 111.7494 224° Southwest  Level Estimated
Wed 07:33:00 PM 20.5673 111.6647 224° Southwest  Level Estimated
Wed 07:34:00 PM 20.4838 111.5800 224° Southwest  Level Estimated
Wed 07:35:00 PM 20.4003 111.4954 224° Southwest  Level Estimated
Wed 07:36:00 PM 20.3168 111.4110 223° Southwest  Level Estimated
Wed 07:37:00 PM 20.2332 111.3266 223° Southwest  Level Estimated
Wed 07:38:00 PM 20.1496 111.2423 223° Southwest  Level Estimated
Wed 07:39:00 PM 20.0660 111.1581 223° Southwest  Level Estimated
Wed 07:40:00 PM 19.9823 111.0740 223° Southwest  Level Estimated
Wed 07:41:00 PM 19.8986 110.9900 223° Southwest  Level Estimated
Wed 07:42:00 PM 19.8148 110.9060 223° Southwest  Level Estimated
Wed 07:43:00 PM 19.7310 110.8222 223° Southwest  Level Estimated
Wed 07:44:00 PM 19.6471 110.7384 223° Southwest  Level Estimated
Wed 07:45:00 PM 19.5632 110.6547 223° Southwest  Level Estimated
Wed 07:46:00 PM 19.4793 110.5712 223° Southwest  Level Estimated
Wed 07:47:00 PM 19.3953 110.4877 223° Southwest  Level Estimated
Wed 07:48:00 PM 19.3113 110.4043 223° Southwest  Level Estimated
Wed 07:49:00 PM 19.2273 110.3209 223° Southwest  Level Estimated
Wed 07:50:00 PM 19.1432 110.2377 223° Southwest  Level Estimated
Wed 07:51:00 PM 19.0591 110.1545 223° Southwest  Level Estimated
Wed 07:52:00 PM 18.9750 110.0715 223° Southwest  Level Estimated
Wed 07:53:00 PM 18.8908 109.9885 223° Southwest  Level Estimated
Wed 07:54:00 PM 18.8066 109.9056 223° Southwest  Level Estimated
Wed 07:55:00 PM 18.7223 109.8228 223° Southwest  Level Estimated
Wed 07:56:00 PM 18.6380 109.7400 223° Southwest  Level Estimated
Wed 07:57:00 PM 18.5537 109.6574 223° Southwest  Level Estimated
Wed 07:58:00 PM 18.4693 109.5748 223° Southwest  Level Estimated
Wed 07:59:00 PM 18.3849 109.4923 223° Southwest  Level Estimated
Wed 08:00:00 PM 18.3029 109.4123 223° Southwest  Level Estimated
Wed 08:01:00 PM 18.3029 109.4123 148° Southeast  Level Estimated
Wed 08:02:00 PM 18.3029 109.4123 148° Southeast  Level Estimated
Wed 08:03:00 PM 18.3029 109.4123 148° Southeast  Level Estimated
Wed 08:04:00 PM 18.3029 109.4123 148° Southeast  Level Estimated
Wed 08:05:00 PM 18.3029 109.4123 148° Southeast  Level Estimated
Wed 08:06:00 PM 18.3029 109.4123 148° Southeast  Level Estimated
Wed 08:07:00 PM 18.3029 109.4123 148° Southeast  Level Estimated
Wed 08:08:00 PM 18.3029 109.4123 148° Southeast  Level Estimated
Wed 08:09:00 PM 18.3029 109.4123 148° Southeast  Level Estimated
Wed 08:10:00 PM 18.3029 109.4123 148° Southeast  Level Estimated
Wed 08:11:00 PM 18.3029 109.4123 148° Southeast  Level Estimated
Wed 08:12:00 PM 18.3029 109.4123 148° Southeast  Level Estimated
Wed 08:13:00 PM 18.3029 109.4123 148° Southeast  Level Estimated
Wed 08:14:00 PM 18.3029 109.4123 148° Southeast  Level Estimated
Wed 08:15:00 PM 18.3029 109.4123 148° Southeast  Level Estimated
Wed 08:16:00 PM 18.3029 109.4123 148° Southeast  Level Estimated

Login

Don't have an account? Register now (free) for customized features, flight alerts, and more!